Flight Track Log - Related Links

Times and Time Zones

All times are in EDT time to prevent confusion due to time zone crossing. See the ABX445 flight status page for this flight to view local times or setup timezone preferences in your user account.

Time Position Orientation Groundspeed Altitude Reporting Facility
EDT Latitude Longitude Course Direction KTS MPH feet Rate Location/Type
Mon 09:41:30 PM 18.4333 -65.9667 360° North 160 184 1,300  Level San Juan Center
Mon 09:42:30 PM 18.4667 -65.9667 360° North 220 253 3,000 2,000 Climbing San Juan Center
Mon 09:43:30 PM 18.5333 -66.0167 325° Northwest 260 299 5,300 2,678 Climbing San Juan Center
Mon 09:44:31 PM 18.5833 -66.0667 317° Northwest 270 311 8,400 2,579 Climbing San Juan Center
Mon 09:45:31 PM 18.6500 -66.1167 325° Northwest 290 334 10,500 2,050 Climbing San Juan Center
Mon 09:46:31 PM 18.7333 -66.1833 323° Northwest 350 403 12,500 2,331 Climbing San Juan Center
Mon 09:47:32 PM 18.8000 -66.2500 317° Northwest 370 426 15,200 2,486 Climbing San Juan Center
Mon 09:49:00 PM 18.9416 -66.3524 317° Northwest  Level Estimated
Mon 09:49:32 PM 18.9667 -66.4000 317° Northwest 390 449 20,000  Level San Juan Center
Mon 09:50:33 PM 19.0500 -66.4833 317° Northwest 410 472 22,000 1,983 Climbing San Juan Center
Mon 09:51:33 PM 19.1500 -66.5667 322° Northwest 420 483 24,000 1,900 Climbing San Juan Center
Mon 09:52:33 PM 19.2167 -66.6500 310° West 410 472 25,800 1,785 Climbing San Juan Center
Mon 09:53:34 PM 19.3167 -66.7333 322° Northwest 440 506 27,600 1,587 Climbing San Juan Center
Mon 09:54:34 PM 19.4167 -66.8167 322° Northwest 450 518 29,000 1,450 Climbing San Juan Center
Mon 09:55:34 PM 19.5000 -66.9000 317° Northwest 460 529 30,500 1,624 Climbing San Juan Center
Mon 09:57:35 PM 19.7000 -67.0833 319° Northwest 450 518 33,900 1,657 Climbing San Juan Center
Mon 09:58:35 PM 19.8000 -67.1667 322° Northwest 450 518 35,500 1,600 Climbing San Juan Center
Mon 09:59:35 PM 19.8833 -67.2500 317° Northwest 450 518 37,100 829 Climbing San Juan Center
Mon 10:01:36 PM 20.0833 -67.4333 319° Northwest 440 506 38,000 298 Climbing San Juan Center
Mon 10:02:36 PM 20.1667 -67.5167 317° Northwest 440 506 38,000  Level San Juan Center
Mon 10:03:37 PM 20.2667 -67.6000 322° Northwest 440 506 38,000  Level San Juan Center
Mon 10:04:48 PM 20.3864 -67.7111 319° Northwest 446 513 38,000  Level Miami Center
Mon 10:05:48 PM 20.4728 -67.8003 316° Northwest 453 521 38,000  Level Miami Center
Mon 10:06:46 PM 20.5756 -67.8839 323° Northwest 447 514 38,000  Level Miami Center
Mon 10:07:47 PM 20.6681 -67.9708 319° Northwest 447 514 38,000  Level Miami Center
Mon 10:08:47 PM 20.7525 -68.0669 313° West 447 514 38,000  Level Miami Center
Mon 10:10:00 PM 20.8278 -68.1914 312° West  Level FlightAware Approximate
Mon 10:10:46 PM 20.9156 -68.2647 312° West 452 520 38,000  Level Miami Center
Mon 10:11:48 PM 21.0003 -68.3636 313° West 452 520 38,000  Level Miami Center
Mon 10:12:46 PM 21.0825 -68.4606 312° West 446 513 38,000  Level Miami Center
Mon 10:13:46 PM 21.1650 -68.5597 312° West 446 513 38,000  Level Miami Center
Mon 10:15:00 PM 21.2610 -68.6760 312° West  Level FlightAware Approximate
Mon 10:15:46 PM 21.3275 -68.7564 312° West 446 513 38,000  Level Miami Center
Mon 10:16:46 PM 21.4139 -68.8556 313° West 446 513 38,000  Level Miami Center
Mon 10:17:46 PM 21.4939 -68.9511 312° West 446 513 38,000  Level Miami Center
Mon 10:18:48 PM 21.5697 -69.0492 310° West 438 504 38,000  Level Miami Center
Mon 10:19:46 PM 21.6517 -69.1467 312° West 438 504 38,000  Level Miami Center
Mon 10:20:47 PM 21.7314 -69.2403 313° West 438 504 38,000  Level Miami Center
Mon 10:21:47 PM 21.8028 -69.3344 309° West 438 504 38,000  Level Miami Center
Mon 10:22:48 PM 21.8847 -69.4325 312° West 430 495 38,000  Level Miami Center
Mon 10:23:46 PM 21.9644 -69.5308 311° West 435 501 38,000  Level Miami Center
Mon 10:24:47 PM 22.0419 -69.6225 312° West 435 501 38,000  Level Miami Center
Mon 10:25:48 PM 22.1214 -69.7189 312° West 441 507 38,000  Level Miami Center
Mon 10:26:46 PM 22.2011 -69.8175 311° West 436 502 38,000  Level Miami Center
Mon 10:27:46 PM 22.2806 -69.9119 312° West 436 502 38,000  Level Miami Center
Mon 10:28:47 PM 22.3558 -70.0067 311° West 436 502 38,000  Level Miami Center
Mon 10:29:47 PM 22.4331 -70.1011 312° West 436 502 38,000  Level Miami Center
Mon 10:30:46 PM 22.5103 -70.1983 311° West 430 495 38,000  Level Miami Center
Mon 10:31:46 PM 22.5872 -70.2886 313° West 425 489 38,000  Level Miami Center
Mon 10:33:00 PM 22.6826 -70.4071 311° West  Level FlightAware Approximate
Mon 10:33:49 PM 22.7394 -70.4789 311° West 420 483 38,000  Level Miami Center
Mon 10:35:00 PM 22.8309 -70.5928 311° West  Level FlightAware Approximate
Mon 10:35:46 PM 22.8911 -70.6672 311° West 415 478 38,000  Level Miami Center
Mon 10:36:46 PM 22.9681 -70.7650 311° West 415 478 38,000  Level Miami Center
Mon 10:38:47 PM 23.1242 -70.9606 311° West 423 487 38,000  Level Miami Center
Mon 10:39:47 PM 23.1989 -71.0567 310° West 423 487 38,000  Level Miami Center
Mon 10:40:46 PM 23.2775 -71.1500 313° West 423 487 38,000  Level Miami Center
Mon 10:41:47 PM 23.3544 -71.2483 310° West 416 479 38,000  Level Miami Center
Mon 10:42:49 PM 23.4308 -71.3422 312° West 416 479 38,000  Level Miami Center
Mon 10:43:46 PM 23.5094 -71.4361 312° West 416 479 38,000  Level Miami Center
Mon 10:44:48 PM 23.5842 -71.5372 309° West 416 479 38,000  Level Miami Center
Mon 10:45:46 PM 23.6606 -71.6361 310° West 416 479 38,000  Level Miami Center
Mon 10:46:47 PM 23.7369 -71.7303 312° West 416 479 38,000  Level Miami Center
Mon 10:47:46 PM 23.8133 -71.8294 310° West 416 479 38,000  Level Miami Center
Mon 10:48:46 PM 23.8875 -71.9217 311° West 416 479 38,000  Level Miami Center
Mon 10:49:46 PM 23.9656 -72.0142 313° West 416 479 38,000  Level Miami Center
Mon 10:50:47 PM 24.0397 -72.1092 311° West 416 479 38,000  Level Miami Center
Mon 10:51:47 PM 24.1119 -72.2108 308° West 416 479 38,000  Level Miami Center
Mon 10:52:49 PM 24.1881 -72.3106 310° West 416 479 38,000  Level Miami Center
Mon 10:53:48 PM 24.2619 -72.4081 310° West 416 479 38,000  Level Miami Center
Mon 10:54:46 PM 24.3358 -72.4989 312° West 416 479 38,000  Level Miami Center
Mon 10:56:00 PM 24.4311 -72.6192 310° West  Level FlightAware Approximate
Mon 10:57:48 PM 24.5464 -72.7814 310° West 416 479 38,000  Level Miami Center
Mon 10:58:46 PM 24.6222 -72.8794 310° West 421 484 38,000  Level Miami Center
Mon 10:59:46 PM 24.7000 -72.9800 310° West 421 484 38,000  Level Miami Center
Mon 11:00:47 PM 24.7758 -73.0806 310° West 420 483 38,000  Level Miami Center
Mon 11:01:46 PM 24.8450 -73.1744 309° West 415 478 38,000  Level Miami Center
Mon 11:02:47 PM 24.9206 -73.2706 311° West 415 478 38,000  Level Miami Center
Mon 11:03:00 PM 24.9574 -73.3168 310° West  Level FlightAware Approximate
Mon 11:03:48 PM 24.9917 -73.3672 309° West 415 478 38,000  Level Miami Center
Mon 11:04:46 PM 25.0628 -73.4636 309° West 415 478 38,000  Level Miami Center
Mon 11:05:48 PM 25.1339 -73.5581 310° West 415 478 38,000  Level Miami Center
Mon 11:06:46 PM 25.2136 -73.6617 310° West 420 483 38,000  Level Miami Center
Mon 11:07:46 PM 25.2825 -73.7539 310° West 414 476 38,000  Level Miami Center
Mon 11:08:47 PM 25.3575 -73.8556 309° West 414 476 38,000  Level Miami Center
Mon 11:09:48 PM 25.4286 -73.9528 309° West 414 476 38,000  Level Miami Center
Mon 11:10:48 PM 25.4994 -74.0475 310° West 414 476 38,000  Level Miami Center
Mon 11:11:46 PM 25.5722 -74.1450 310° West 414 476 38,000  Level Miami Center
Mon 11:12:48 PM 25.6428 -74.2403 309° West 414 476 38,000  Level Miami Center
Mon 11:13:48 PM 25.7156 -74.3400 309° West 414 476 38,000  Level Miami Center
Mon 11:14:46 PM 25.7969 -74.4469 310° West 415 478 38,000  Level Miami Center
Mon 11:15:48 PM 25.8694 -74.5400 311° West 416 479 38,000  Level Miami Center
Mon 11:16:47 PM 25.9356 -74.6358 308° West 411 473 38,000  Level Miami Center
Mon 11:18:00 PM 26.0354 -74.7500 314° West  Level FlightAware Approximate
Mon 11:18:46 PM 26.0889 -74.8294 314° West 410 472 38,000  Level Miami Center
Mon 11:19:48 PM 26.1508 -74.9233 306° West 402 463 38,000  Level Miami Center
Mon 11:20:46 PM 26.2083 -75.0106 306° West 392 451 38,000  Level Miami Center
Mon 11:21:47 PM 26.2828 -75.1067 311° West 387 445 38,000  Level Miami Center
Mon 11:22:46 PM 26.3547 -75.2031 310° West 392 451 38,000  Level Miami Center
Mon 11:23:47 PM 26.4247 -75.2972 310° West 392 451 38,000  Level Miami Center
Mon 11:24:48 PM 26.5011 -75.3889 313° West 398 458 38,000  Level Miami Center
Mon 11:25:46 PM 26.5814 -75.4833 314° West 404 465 38,000  Level Miami Center
Mon 11:26:46 PM 26.6553 -75.5753 312° West 408 470 38,000  Level Miami Center
Mon 11:27:48 PM 26.7292 -75.6700 311° West 408 470 38,000  Level Miami Center
Mon 11:28:47 PM 26.8031 -75.7692 310° West 406 467 38,000  Level Miami Center
Mon 11:29:46 PM 26.8728 -75.8617 310° West 401 461 38,000  Level Miami Center
Mon 11:30:48 PM 26.9486 -75.9658 309° West 411 473 38,000  Level Miami Center
Mon 11:31:48 PM 27.0161 -76.0611 309° West 404 465 38,000  Level Miami Center
Mon 11:32:46 PM 27.0856 -76.1517 311° West 403 464 38,000  Level Miami Center
Mon 11:33:46 PM 27.1547 -76.2539 307° West 403 464 38,000  Level Miami Center
Mon 11:34:46 PM 27.2242 -76.3517 309° West 403 464 38,000  Level Miami Center
Mon 11:35:47 PM 27.2892 -76.4425 309° West 398 458 38,000  Level Miami Center
Mon 11:36:48 PM 27.3583 -76.5475 307° West 398 458 38,000  Level Miami Center
Mon 11:37:46 PM 27.4275 -76.6386 311° West 400 460 38,000  Level Miami Center
Mon 11:38:47 PM 27.4967 -76.7344 309° West 393 452 38,000  Level Miami Center
Mon 11:39:47 PM 27.5633 -76.8375 306° West 393 452 38,000  Level Miami Center
Mon 11:40:47 PM 27.6344 -76.9358 309° West 398 458 38,000  Level Miami Center
Mon 11:41:47 PM 27.7011 -77.0344 307° West 399 459 38,000  Level Miami Center
Mon 11:42:49 PM 27.7700 -77.1333 308° West 393 452 38,000  Level Miami Center
Mon 11:43:47 PM 27.8386 -77.2275 310° West 393 452 38,000  Level Miami Center
Mon 11:44:47 PM 27.9053 -77.3144 311° West 399 459 38,000  Level Miami Center
Mon 11:45:47 PM 27.9864 -77.4231 310° West 408 470 38,000  Level Miami Center
Mon 11:46:47 PM 28.0339 -77.5008 305° West 408 470 38,000 -51 Level Miami Center
Mon 11:47:45 PM 28.1189 -77.6167 310° West 398 458 37,900  Descending Miami Center
Mon 11:48:46 PM 28.2253 -77.6811 332° Northwest 405 466 38,000 50 Climbing Miami Center
Mon 11:49:46 PM 28.3356 -77.7361 336° Northwest 421 484 38,000  Level Miami Center
Mon 11:50:46 PM 28.4478 -77.7914 337° Northwest 426 490 38,000  Level Miami Center
Mon 11:51:45 PM 28.5603 -77.8467 337° Northwest 434 499 38,000  Level Miami Center
Mon 11:52:46 PM 28.6747 -77.9019 337° Northwest 442 509 38,000  Level Miami Center
Mon 11:53:46 PM 28.7911 -77.9578 337° Northwest 437 503 38,000  Level Miami Center
Mon 11:54:46 PM 28.9053 -78.0133 337° Northwest 442 509 38,000  Level Miami Center
Mon 11:55:45 PM 29.0133 -78.0692 336° Northwest 442 509 38,000  Level Miami Center
Mon 11:56:47 PM 29.1194 -78.1200 337° Northwest 442 509 38,000 496 Level Miami Center
Mon 11:57:46 PM 29.2400 -78.1808 336° Northwest 442 509 39,000 958 Climbing Miami Center
Mon 11:58:46 PM 29.3542 -78.2347 338° Northwest 446 513 39,900 504 Climbing Miami Center
Mon 11:59:45 PM 29.4744 -78.2981 335° Northwest 448 516 40,000 35 Climbing Miami Center
Tue 12:01:38 AM 29.6692 -78.3872 338° Northwest 378 435 40,000  Level Jacksonville Center
Tue 12:02:38 AM 29.7756 -78.4422 336° Northwest 439 505 40,000  Level Jacksonville Center
Tue 12:03:38 AM 29.8883 -78.5017 335° Northwest 439 505 40,000  Level Jacksonville Center
Tue 12:04:38 AM 30.0031 -78.5589 337° Northwest 439 505 40,000  Level Jacksonville Center
Tue 12:05:38 AM 30.1111 -78.6142 336° Northwest 445 512 40,000  Level Jacksonville Center
Tue 12:06:38 AM 30.2386 -78.6806 336° Northwest 447 514 40,000  Level Jacksonville Center
Tue 12:07:38 AM 30.3492 -78.7406 335° Northwest 436 502 40,000  Level Jacksonville Center
Tue 12:08:38 AM 30.4681 -78.7981 337° Northwest 453 521 40,000  Level Jacksonville Center
Tue 12:09:38 AM 30.5806 -78.8583 335° Northwest 449 517 40,000  Level Jacksonville Center
Tue 12:10:38 AM 30.6950 -78.9186 336° Northwest 442 509 40,000  Level Jacksonville Center
Tue 12:11:38 AM 30.8097 -78.9769 336° Northwest 455 524 40,000  Level Jacksonville Center
Tue 12:12:38 AM 30.9264 -79.0375 336° Northwest 449 517 40,000  Level Jacksonville Center
Tue 12:13:38 AM 31.0431 -79.1006 335° Northwest 449 517 40,000 -50 Level Jacksonville Center
Tue 12:14:38 AM 31.1594 -79.1589 337° Northwest 449 517 39,900  Descending Jacksonville Center
Tue 12:15:38 AM 31.2761 -79.2200 336° Northwest 449 517 40,000 50 Climbing Jacksonville Center
Tue 12:16:38 AM 31.3867 -79.2836 334° Northwest 449 517 40,000  Level Jacksonville Center
Tue 12:17:38 AM 31.5031 -79.3425 337° Northwest 449 517 40,000  Level Jacksonville Center
Tue 12:18:38 AM 31.6175 -79.4017 336° Northwest 449 517 40,000  Level Jacksonville Center
Tue 12:19:38 AM 31.7319 -79.4631 335° Northwest 449 517 40,000  Level Jacksonville Center
Tue 12:20:38 AM 31.8442 -79.5250 335° Northwest 449 517 40,000 -50 Level Jacksonville Center
Tue 12:21:38 AM 31.9606 -79.5844 337° Northwest 449 517 39,900  Descending Jacksonville Center
Tue 12:22:38 AM 32.0747 -79.6442 336° Northwest 449 517 40,000 50 Climbing Jacksonville Center
Tue 12:23:38 AM 32.1892 -79.7064 335° Northwest 449 517 40,000  Level Jacksonville Center
Tue 12:24:38 AM 32.3033 -79.7686 335° Northwest 449 517 40,000  Level Jacksonville Center
Tue 12:25:38 AM 32.4175 -79.8311 335° Northwest 449 517 40,000  Level Jacksonville Center
Tue 12:26:38 AM 32.5339 -79.8939 336° Northwest 449 517 40,000  Level Jacksonville Center
Tue 12:27:38 AM 32.6503 -79.9567 336° Northwest 449 517 40,000  Level Jacksonville Center
Tue 12:28:38 AM 32.7686 -80.0194 336° Northwest 449 517 40,000  Level Jacksonville Center
Tue 12:29:38 AM 32.8828 -80.0825 335° Northwest 449 517 40,000  Level Jacksonville Center
Tue 12:30:38 AM 33.0011 -80.1483 335° Northwest 465 535 40,000  Level Jacksonville Center
Tue 12:32:09 AM 33.1656 -80.2372 336° Northwest 460 529 40,000  Level Atlanta Center
Tue 12:33:09 AM 33.2844 -80.3014 336° Northwest 465 535 40,000  Level Atlanta Center
Tue 12:34:09 AM 33.3969 -80.3664 334° Northwest 465 535 40,000  Level Atlanta Center
Tue 12:35:09 AM 33.5139 -80.4311 335° Northwest 460 529 40,000  Level Atlanta Center
Tue 12:36:09 AM 33.6306 -80.4961 335° Northwest 460 529 40,000  Level Atlanta Center
Tue 12:37:09 AM 33.7556 -80.5633 336° Northwest 460 529 40,000  Level Atlanta Center
Tue 12:38:09 AM 33.8658 -80.6289 334° Northwest 460 529 40,000  Level Atlanta Center
Tue 12:39:09 AM 33.9844 -80.6944 335° Northwest 460 529 40,000  Level Atlanta Center
Tue 12:40:09 AM 34.1053 -80.7647 334° Northwest 460 529 40,000  Level Atlanta Center
Tue 12:41:09 AM 34.2219 -80.8281 336° Northwest 460 529 40,000  Level Atlanta Center
Tue 12:42:09 AM 34.3386 -80.8992 333° Northwest 460 529 40,000  Level Atlanta Center
Tue 12:43:09 AM 34.4719 -80.9775 334° Northwest 478 550 40,000  Level Atlanta Center
Tue 12:44:09 AM 34.5797 -81.0367 336° Northwest 478 550 40,000  Level Atlanta Center
Tue 12:45:09 AM 34.6983 -81.1056 334° Northwest 473 544 40,000  Level Atlanta Center
Tue 12:46:09 AM 34.8189 -81.1747 335° Northwest 473 544 40,000  Level Atlanta Center
Tue 12:47:09 AM 34.9417 -81.2439 335° Northwest 473 544 40,000  Level Atlanta Center
Tue 12:48:09 AM 35.0578 -81.3136 334° Northwest 467 537 40,000  Level Atlanta Center
Tue 12:49:09 AM 35.1889 -81.3881 335° Northwest 467 537 40,000  Level Atlanta Center
Tue 12:50:09 AM 35.3094 -81.4581 335° Northwest 472 543 40,000  Level Atlanta Center
Tue 12:51:09 AM 35.4275 -81.5283 334° Northwest 472 543 40,000  Level Atlanta Center
Tue 12:52:09 AM 35.5439 -81.5986 334° Northwest 472 543 40,000  Level Atlanta Center
Tue 12:53:09 AM 35.6619 -81.6694 334° Northwest 467 537 40,000  Level Atlanta Center
Tue 12:54:09 AM 35.7653 -81.7303 334° Northwest 462 532 40,000  Level Atlanta Center
Tue 12:55:09 AM 35.8833 -81.7961 336° Northwest 462 532 40,000  Level Atlanta Center
Tue 12:56:09 AM 35.9972 -81.8675 333° Northwest 467 537 40,000  Level Atlanta Center
Tue 12:57:09 AM 36.1133 -81.9336 335° Northwest 461 531 40,000  Level Atlanta Center
Tue 12:58:09 AM 36.2314 -82.0078 333° Northwest 460 529 40,000  Level Atlanta Center
Tue 01:00:20 AM 36.4761 -82.1664 332° Northwest 467 537 40,000  Level Indianapolis Center
Tue 01:01:20 AM 36.5792 -82.2639 323° Northwest 466 536 40,000  Level Indianapolis Center
Tue 01:02:20 AM 36.6839 -82.3608 323° Northwest 470 541 40,000  Level Indianapolis Center
Tue 01:03:21 AM 36.7886 -82.4581 323° Northwest 471 542 40,000  Level Indianapolis Center
Tue 01:04:21 AM 36.8933 -82.5550 323° Northwest 472 543 40,000  Level Indianapolis Center
Tue 01:05:21 AM 37.0153 -82.6689 323° Northwest 474 545 40,000  Level Indianapolis Center
Tue 01:06:22 AM 37.1194 -82.7683 323° Northwest 477 549 40,000  Level Indianapolis Center
Tue 01:07:22 AM 37.2244 -82.8681 323° Northwest 479 551 40,000  Level Indianapolis Center
Tue 01:08:22 AM 37.3289 -82.9686 323° Northwest 476 548 40,000  Level Indianapolis Center
Tue 01:09:23 AM 37.4350 -83.0697 323° Northwest 478 550 40,000 -198 Level Indianapolis Center
Tue 01:10:23 AM 37.5408 -83.1706 323° Northwest 479 551 39,600 -1,550 Descending Indianapolis Center
Tue 01:11:23 AM 37.6464 -83.2700 323° Northwest 476 548 36,900 -2,975 Descending Indianapolis Center
Tue 01:12:24 AM 37.7517 -83.3714 323° Northwest 477 549 33,600 -3,273 Descending Indianapolis Center
Tue 01:13:24 AM 37.8578 -83.4733 323° Northwest 479 551 30,300 -3,000 Descending Indianapolis Center
Tue 01:14:24 AM 37.9608 -83.5736 323° Northwest 471 542 27,600 -3,250 Descending Indianapolis Center
Tue 01:15:24 AM 38.0639 -83.6739 323° Northwest 467 537 23,800 -3,223 Descending Indianapolis Center
Tue 01:16:25 AM 38.1628 -83.7703 323° Northwest 455 524 21,100 -2,628 Descending Indianapolis Center
Tue 01:17:25 AM 38.2567 -83.8600 323° Northwest 423 487 18,500 -2,500 Descending Indianapolis Center
Tue 01:18:25 AM 38.3431 -83.9456 322° Northwest 396 456 16,100 -2,380 Descending Indianapolis Center
Tue 01:19:26 AM 38.4275 -84.0286 322° Northwest 384 442 13,700 -2,331 Descending Indianapolis Center
Tue 01:20:26 AM 38.5075 -84.1119 321° Northwest 373 429 11,400 -1,350 Descending Indianapolis Center
Tue 01:21:26 AM 38.5719 -84.2150 309° West 372 428 11,000 -200 Descending Indianapolis Center
Tue 01:22:26 AM 38.6339 -84.3147 309° West 360 414 11,000 -50 Level Indianapolis Center
Tue 01:23:27 AM 38.6986 -84.4144 310° West 336 387 10,900 -545 Descending Indianapolis Center
Tue 01:24:27 AM 38.7525 -84.5017 308° West 310 357 9,900 -1,150 Descending Indianapolis Center
Tue 01:25:27 AM 38.7994 -84.5747 310° West 288 331 8,600 -1,550 Descending Indianapolis Center
Tue 01:26:27 AM 38.8506 -84.6550 309° West 290 334 6,800 -1,655 Descending Indianapolis Center
Tue 01:27:23 AM 38.9000 -84.7333 309° West 290 334 5,400 -931 Descending Cincinnati TRACON
Tue 01:28:23 AM 38.9500 -84.8000 314° West 242 278 5,000 -450 Descending Cincinnati TRACON
Tue 01:29:23 AM 38.9833 -84.8667 303° West 201 231 4,500 -744 Descending Cincinnati TRACON
Tue 01:30:24 AM 39.0333 -84.9000 333° Northwest 200 230 3,500 -545 Descending Cincinnati TRACON
Tue 01:31:24 AM 39.0500 -84.8500 67° East 153 176 3,400 -421 Descending Cincinnati TRACON
Tue 01:32:18 AM 39.0500 -84.8000 90° East 153 176 2,700 -750 Descending Cincinnati TRACON
Tue 01:33:24 AM 39.0500 -84.7500 90° East 139 160 1,900 -727 Descending Cincinnati TRACON

Login

Don't have an account? Register now (free) for customized features, flight alerts, and more!